Huvudsida
METAR-TAF:

METAR-TAF

Flygplatser :

Skövde, Sverige

latitud: 58-27N, longitud: 013-58E, höjd: 98 m

Aktuellt väderrapport

Denna rapport gjordes för 24 minuter sedan, klockan 18:50 UTC
Vind 6 kt från nordväst
Temperatur 5°C
Fuktighet 81%
Tryck 997 hPa
Sikt 10 km eller mer

METAR: ESGR 231850Z AUTO 31006KT 9999 OVC100/// 05/02 Q0997

Tid: 21:14 (19:14 UTC)


TAF: saknas

Aktuella väderrapporter och prognoser från 4000 flygplatser (METAR- och TAF-rapporter).

De tillgängliga stationerna syns som gula och röda prickar på kartan.

För musen över prickarna för att se namnen på stationerna.

Klicka sedan för att få väderrapporter och prognoser.

För att ändra kartan: Klicka på de gröna knapparna med ett svart kors på för att zooma in; den gröna knappen med ett streck på för att zooma ut; eller på de gröna pilarna för angränsande kartor.


METAR-TAF: